LOWI

Innsbruck Airport

Innsbruck, Austria
METAR LOWI 111050Z 09006KT 020V130 9999 -SHSN FEW015 SCT060 BKN080 01/M01 Q1021 R08/29//95 TEMPO 27010KT
Observed Flight Rules
Dec-11 @ 10:50 UTC (56 minutes ago) Visual Flight Rules
Wind Visibility Clouds Conditions
90° at 6 knots 10,000+ meters
  • Few at 1,500' AGL
  • Scattered at 6,000' AGL
  • Broken at 8,000' AGL
  • Light Snow
Temperatures Readings
Current 1°C / 34°F
Dewpoint -1°C / 30°F
Humidity 87%
Altimeter 30.15" Hg
Pressure 1021 hPa
Elevation 581
METAR LOWI 111050Z 09006KT 020V130 9999 -SHSN FEW015 SCT060 BKN080 01/M01 Q1021 R08/29//95 TEMPO 27010KT
Observed Flight Rules
Dec-11 @ 10:50 UTC
(56 minutes ago)
VFR
Wind Visibility
90° at 6 knots 10,000+ meters
Clouds
  • Few at 1,500' AGL
  • Scattered at 6,000' AGL
  • Broken at 8,000' AGL
Conditions
  • Light Snow
Temperature Dewpoint
1°C / 34°F -1°C / 30°F
Humidity Altimeter Pressure
87% 30.15" Hg 1021 hPa